Vidnoe — UBDU — position and weather

sailwx.info

Track history (hours):
 
Tides and Currents Weather Stations Pressure Air Temp Water Temp Dewpoint Dewpoint Depression Visibility Wind Speed Wind Dir Waves Ship Positions

Vidnoe

Last reported at 2014-Aug-06 23:26 UTC. Time now 2014-Aug-29 05:31 UTC.
Position N 69°30' E 035°26'.
Warning: this ship's position is 22 days out of date.

Length 115 m; beam 17 m.

Type: Tanker. MMSI: 273516400.

Date/timePositionNaut miles runAvg speedWind from/ knotsBaromVisibWave heightAir tempDewpointWater temp
2014-Aug-06 23:26N 69°30' E 035°26'1012.0
2014-Aug-06 22:33N 69°30' E 034°56'  
2014-Aug-01 02:09N 70°11' E 016°26'  
2014-Jul-29 03:22N 58°23' E 005°23'910.7
2014-Jul-29 02:33N 58°17' E 005°36'1111.3
2014-Jul-29 01:33N 58°10' E 005°52'1110.8
2014-Jul-29 00:33N 58°03' E 006°07'7310.5
2014-Jul-28 17:33N 57°48' E 008°23'1110.5
2014-Jul-28 16:30N 57°48' E 008°43'1310.3
2014-Jul-28 15:13N 57°49' E 009°08'810.5
2014-Jul-28 14:25N 57°49' E 009°24'2510.8
2014-Jul-28 12:06N 57°49' E 010°11'610.8
2014-Jul-28 11:33N 57°49' E 010°22'1110.9
2014-Jul-28 10:33N 57°49' E 010°43'1110.6
2014-Jul-28 09:33N 57°42' E 010°57'1111.1
2014-Jul-28 08:33N 57°34' E 011°12'1111.0
2014-Jul-28 07:33N 57°26' E 011°26'1111.2
2014-Jul-28 06:33N 57°16' E 011°33'1110.9
2014-Jul-28 05:33N 57°06' E 011°40'1111.0
2014-Jul-28 04:33N 56°55' E 011°47'1111.0
2014-Jul-28 03:34N 56°45' E 011°53'1211.5
2014-Jul-28 02:33N 56°35' E 011°42'1111.0
2014-Jul-28 01:32N 56°25' E 011°32'1211.0
2014-Jul-28 00:29N 56°15' E 011°22'1011.1
2014-Jul-27 23:32N 56°07' E 011°10'  
Track history (hours):
 
Tides and Currents Weather Stations Pressure Air Temp Water Temp Dewpoint Dewpoint Depression Visibility Wind Speed Wind Dir Waves Ship Positions

Vidnoe

Last reported at 2014-Aug-06 23:26 UTC. Time now 2014-Aug-29 05:31 UTC.
Position N 69°30' E 035°26'.
Warning: this ship's position is 22 days out of date.

Length 115 m; beam 17 m.

Type: Tanker. MMSI: 273516400.

Date/timePositionNaut miles runAvg speedWind from/ knotsBaromVisibWave heightAir tempDewpointWater temp
2014-Aug-06 23:26N 69°30' E 035°26'1012.0
2014-Aug-06 22:33N 69°30' E 034°56'  
2014-Aug-01 02:09N 70°11' E 016°26'  
2014-Jul-29 03:22N 58°23' E 005°23'910.7
2014-Jul-29 02:33N 58°17' E 005°36'1111.3
2014-Jul-29 01:33N 58°10' E 005°52'1110.8
2014-Jul-29 00:33N 58°03' E 006°07'7310.5
2014-Jul-28 17:33N 57°48' E 008°23'1110.5
2014-Jul-28 16:30N 57°48' E 008°43'1310.3
2014-Jul-28 15:13N 57°49' E 009°08'810.5
2014-Jul-28 14:25N 57°49' E 009°24'2510.8
2014-Jul-28 12:06N 57°49' E 010°11'610.8
2014-Jul-28 11:33N 57°49' E 010°22'1110.9
2014-Jul-28 10:33N 57°49' E 010°43'1110.6
2014-Jul-28 09:33N 57°42' E 010°57'1111.1
2014-Jul-28 08:33N 57°34' E 011°12'1111.0
2014-Jul-28 07:33N 57°26' E 011°26'1111.2
2014-Jul-28 06:33N 57°16' E 011°33'1110.9
2014-Jul-28 05:33N 57°06' E 011°40'1111.0
2014-Jul-28 04:33N 56°55' E 011°47'1111.0
2014-Jul-28 03:34N 56°45' E 011°53'1211.5
2014-Jul-28 02:33N 56°35' E 011°42'1111.0
2014-Jul-28 01:32N 56°25' E 011°32'1211.0
2014-Jul-28 00:29N 56°15' E 011°22'1011.1
2014-Jul-27 23:32N 56°07' E 011°10'  

Dump ship's entire track history